Weather at Quakertown Airport

Public forecast

Using degrees Fahrenheit for public forecast. Weather courtesy of forecast.io.

Current aviation weather report (METAR) for Quakertown Airport

Retrieved 2020/10/31 15:35 UTC (0 seconds ago):

KUKT 311535Z AUTO VRB03KT 10SM CLR 06/M03 A3053 RMK A01

Closest aviation forecast (TAF) to Quakertown Airport

Closest forecast is Lehigh Valley International Airport, 13.3 nm (24.6 km) NNW. Retrieved 2020/10/31 12:22 UTC (3 hours ago):

TAF KABE 311120Z 3112/0112 01004KT P6SM SKC FM312000 14005KT P6SM SKC FM010200 VRB04KT P6SM SKC FM010900 VRB02KT P6SM BKN045